Main page
METAR-TAF:

METAR-TAF

Airports :

Diori Hamani International Airport

Niamey, Niger

latitude: 13-29N, longitude: 002-10E, elevation: 223 m

Current weather observation

The report was made 27 minutes ago, at 15:00 UTC
Wind 8 kt from the Southeast
Temperature 33°C
Humidity 46%
Pressure 1011 hPa
Visibility 10 km or more
Few clouds at a height of 2000 ft
Few clouds at a height of 4000 ft, Cumulonimbus.

METAR: DRRN 011500Z 14008KT 9999 FEW020 FEW040CB 33/20 Q1011 TEMPO TS

Time: 16:27 (15:27 UTC)

Forecast

The report was made 4 hours and 27 minutes ago, at 11:00 UTC
Forecast valid from 01 at 12 UTC to 02 at 18 UTC
Wind 6 kt from the South/Southeast
Visibility: 8000 m
Few clouds at a height of 4000 ft
Probability 30% :
Temporary
from 02 at 14 UTC to 02 at 18 UTC
Scattered clouds at a height of 3000 ft
Few clouds at a height of 4000 ft, Cumulonimbus.
thunderstorm

TAF: DRRN 011100Z 0112/0218 16006KT 8000 FEW040 PROB30 TEMPO 0214/0218 TS SCT030 FEW040CB

Weather observations and forecasts of more than 4000 airports (METAR and TAF reports).

The available stations are represented by yellow and red dots on the map.

Hover mouse over dot to see the name of the station.

Then click to see weather observations and forecasts.

To change the map : click on the green buttons with a black cross to zoom in, on the green button with a dash to zoom out, or on the green arrows for adjacent maps.


METAR-TAF: